Baltimore, MD

10:03 AM EST on February 11, 2016 (GMT -0500)
Federal Hill South | | Change Station
CLOSE
Current Station
Personal Weather Station
Location: Baltimore, MD
Elevation: 62 ft
Nearby Weather Stations

Elev 62 ft 39.27 °N, 76.61 °W | Updated 6 minutes ago

Partly Cloudy
Partly Cloudy
26.1 °F
Feels Like 20 °F
N
4.7
Wind Variable Wind from East

Today
High -- | Low -- °F
--% Chance of Precip.
Yesterday
High -- | Low -- °F
Precip. -- in
Pressure 30.10 in
Visibility 10.0 miles
Clouds Scattered Clouds 4600 ft
Windchill 20 °F
Dew Point 6 °F
Humidity 41%
Rainfall 0.00 in
Snow Depth Not available.
7:03 AM 5:38 PM
Waxing Crescent, 12% visible
METAR KBWI 111454Z 28016G28KT 10SM SCT046 M04/M16 A3010 RMK AO2 PK WND 27029/1440 SLP193 VIRGA W-N T10441161 51023
Pressure 30.10 in
Visibility 10.0 miles
Clouds Scattered Clouds 4600 ft
Windchill 20 °F
Dew Point 6 °F
Humidity 41%
Rainfall 0.00 in
Snow Depth Not available.
7:03 AM 5:38 PM
Waxing Crescent, 12% visible
METAR KBWI 111454Z 28016G28KT 10SM SCT046 M04/M16 A3010 RMK AO2 PK WND 27029/1440 SLP193 VIRGA W-N T10441161 51023

10-Day Weather Forecast

Almanac

Astronomy

Feb. 11, 2016 Rise Set
Actual Time
Civil Twilight
Nautical Twilight
Astronomical Twilight
Moon
Length of Visible Light
Length of Day
Tomorrow will be .
, % of the Moon is Illuminated

Today's Extremes

State Highs State Lows

Community

WunderPhotos

Upload Photos

1,892,059 photos uploaded!

WunderBlog® & News

Nearby

Air Quality

  Air Quality AQ Index Pollutant
Not available.

Snow Depth

Station Depth Elevation

Earthquake Activity

City Distance Mag. Time & Date
Minimum magnitude displayed is 2.5.

Coastal Water Temperatures

Place Temperature

Stations

Nearby Weather Stations

Station Location Temp. Windchill Dew Point Humidity Wind Precip. Elev Updated Type
                   

Watches & Warnings

There are currently no watches in effect.